createdAt,value
2022-10-17T00:00:09.629Z,99915.81
2022-10-17T00:02:37.905Z,99911.31
2022-10-17T00:05:05.177Z,99915.97
2022-10-17T00:07:31.889Z,99907.13
2022-10-17T00:09:58.404Z,99909.56
2022-10-17T00:12:25.117Z,99913.78
2022-10-17T00:14:51.723Z,99909.00
2022-10-17T00:17:18.295Z,99913.06
2022-10-17T00:19:47.619Z,99902.50
2022-10-17T00:22:14.283Z,99910.59
2022-10-17T00:24:40.829Z,99903.38
2022-10-17T00:27:07.884Z,99906.72
2022-10-17T00:29:34.861Z,99897.81
2022-10-17T00:32:01.406Z,99902.94
2022-10-17T00:34:29.889Z,99889.16
2022-10-17T00:36:58.422Z,99905.25
2022-10-17T00:39:25.072Z,99908.72
2022-10-17T00:41:51.726Z,99902.34
2022-10-17T00:44:58.745Z,99909.47
2022-10-17T00:47:25.861Z,99904.97
2022-10-17T00:49:52.652Z,99905.50
2022-10-17T00:52:24.020Z,99903.47
2022-10-17T00:54:56.069Z,99901.31
2022-10-17T00:57:23.231Z,99916.09
2022-10-17T00:59:55.856Z,99904.38
2022-10-17T01:02:23.712Z,99906.69
2022-10-17T01:04:52.520Z,99902.88
2022-10-17T01:07:19.068Z,99895.25
2022-10-17T01:09:47.521Z,99901.88
2022-10-17T01:12:20.314Z,99890.56
2022-10-17T01:14:58.061Z,99891.88
2022-10-17T01:17:33.837Z,99894.66
2022-10-17T01:20:34.019Z,99894.78
2022-10-17T01:23:18.639Z,99895.97
2022-10-17T01:25:56.696Z,99900.31
2022-10-17T01:28:44.503Z,99905.22
2022-10-17T01:31:15.250Z,99896.25
2022-10-17T01:33:52.651Z,99905.53
2022-10-17T01:36:32.440Z,99901.75
2022-10-17T01:39:03.056Z,99903.66
2022-10-17T01:41:38.453Z,99914.22
2022-10-17T01:44:11.796Z,99902.78
2022-10-17T01:46:41.198Z,99901.00
2022-10-17T01:49:10.141Z,99889.88
2022-10-17T01:51:41.139Z,99893.94
2022-10-17T01:54:14.177Z,99893.06
2022-10-17T01:56:42.659Z,99894.66
2022-10-17T01:59:13.641Z,99887.25
2022-10-17T02:01:42.418Z,99890.44
2022-10-17T02:04:11.072Z,99894.34
2022-10-17T02:06:38.358Z,99883.91
2022-10-17T02:09:17.235Z,99870.31
2022-10-17T02:11:48.177Z,99873.88
2022-10-17T02:14:25.581Z,99875.47
2022-10-17T02:17:05.233Z,99870.69
2022-10-17T02:19:41.724Z,99863.91
2022-10-17T02:22:18.497Z,99861.97
2022-10-17T02:24:49.877Z,99871.53
2022-10-17T02:27:24.482Z,99874.34
2022-10-17T02:29:57.366Z,99866.00
2022-10-17T02:32:35.166Z,99871.59
2022-10-17T02:35:03.661Z,99874.53
2022-10-17T02:37:32.285Z,99868.72
2022-10-17T02:40:02.275Z,99877.97
2022-10-17T02:42:30.048Z,99880.03
2022-10-17T02:45:00.195Z,99881.44
2022-10-17T02:47:32.086Z,99874.19
2022-10-17T02:49:59.079Z,99875.50
2022-10-17T02:52:31.681Z,99881.28
2022-10-17T02:55:05.037Z,99877.53
2022-10-17T02:57:36.605Z,99881.59
2022-10-17T03:00:08.779Z,99883.34
2022-10-17T03:02:44.373Z,99880.44
2022-10-17T03:05:12.927Z,99879.28
2022-10-17T03:07:39.789Z,99887.53
2022-10-17T03:10:07.465Z,99883.03
2022-10-17T03:12:34.047Z,99875.91
2022-10-17T03:15:00.559Z,99883.34
2022-10-17T03:17:27.068Z,99882.47
2022-10-17T03:19:55.164Z,99881.00
2022-10-17T03:22:21.666Z,99884.69
2022-10-17T03:24:48.397Z,99889.72
2022-10-17T03:27:15.007Z,99885.81
2022-10-17T03:29:41.592Z,99886.41
2022-10-17T03:32:08.097Z,99883.94
2022-10-17T03:34:34.947Z,99884.50
2022-10-17T03:37:03.108Z,99885.53
2022-10-17T03:39:30.005Z,99881.59
2022-10-17T03:41:56.609Z,99883.47
2022-10-17T03:44:23.137Z,99889.91
2022-10-17T03:46:49.803Z,99890.75
2022-10-17T03:49:16.384Z,99889.72
2022-10-17T03:51:42.986Z,99906.81
2022-10-17T03:54:10.963Z,99898.44
2022-10-17T03:56:37.771Z,99905.22
2022-10-17T03:59:04.371Z,99907.25
2022-10-17T04:01:31.414Z,99902.16
2022-10-17T04:03:58.152Z,99900.91
2022-10-17T04:06:24.841Z,99909.00
2022-10-17T04:08:51.355Z,99905.09
2022-10-17T04:11:22.687Z,99910.44
2022-10-17T04:13:55.444Z,99904.97
2022-10-17T04:16:22.743Z,99902.47
2022-10-17T04:18:53.372Z,99917.84
2022-10-17T04:21:20.020Z,99904.09
2022-10-17T04:23:46.699Z,99916.97
2022-10-17T04:26:13.208Z,99911.19
2022-10-17T04:28:43.851Z,99929.31
2022-10-17T04:31:14.060Z,99927.28
2022-10-17T04:33:42.628Z,99925.06
2022-10-17T04:36:12.244Z,99936.97
2022-10-17T04:38:38.978Z,99921.47
2022-10-17T04:41:07.280Z,99909.31
2022-10-17T04:43:36.625Z,99910.88
2022-10-17T04:46:08.536Z,99917.84
2022-10-17T04:48:37.932Z,99912.81
2022-10-17T04:51:07.945Z,99915.22
2022-10-17T04:53:36.618Z,99923.94
2022-10-17T04:56:08.945Z,99934.38
2022-10-17T04:58:36.953Z,99936.72
2022-10-17T05:01:11.514Z,99938.28
2022-10-17T05:03:39.085Z,99935.97
2022-10-17T05:06:08.811Z,99937.56
2022-10-17T05:08:36.120Z,99938.72
2022-10-17T05:11:03.292Z,99945.13
2022-10-17T05:13:30.367Z,99944.41
2022-10-17T05:16:00.173Z,99938.28
2022-10-17T05:18:28.712Z,99938.28
2022-10-17T05:20:55.794Z,99945.13
2022-10-17T05:23:22.373Z,99933.63
2022-10-17T05:25:55.450Z,99933.94
2022-10-17T05:28:22.402Z,99925.72
2022-10-17T05:30:56.898Z,99942.38
2022-10-17T05:33:24.287Z,99943.38
2022-10-17T05:35:52.905Z,99941.78
2022-10-17T05:38:19.650Z,99945.97
2022-10-17T05:40:48.092Z,99951.34
2022-10-17T05:43:15.422Z,99952.34
2022-10-17T05:45:42.446Z,99944.06
2022-10-17T05:48:09.096Z,99947.41
2022-10-17T05:50:36.016Z,99960.59
2022-10-17T05:53:06.302Z,99955.13
2022-10-17T05:55:33.117Z,99951.19
2022-10-17T05:58:00.465Z,99945.06
2022-10-17T06:00:30.395Z,99953.97
2022-10-17T06:02:58.023Z,99946.25
2022-10-17T06:05:25.684Z,99942.78
2022-10-17T06:07:52.313Z,99945.06
2022-10-17T06:10:20.393Z,99942.97
2022-10-17T06:12:48.349Z,99944.38
2022-10-17T06:15:14.961Z,99963.69
2022-10-17T06:17:41.535Z,99979.91
2022-10-17T06:20:09.913Z,99989.75
2022-10-17T06:22:36.589Z,100002.81
2022-10-17T06:25:04.930Z,100006.41
2022-10-17T06:27:35.281Z,100016.25
2022-10-17T06:30:02.903Z,100016.56
2022-10-17T06:32:29.868Z,100021.81
2022-10-17T06:34:56.678Z,100009.13
2022-10-17T06:37:23.608Z,100009.72
2022-10-17T06:39:50.590Z,100001.72
2022-10-17T06:42:17.317Z,99997.22
2022-10-17T06:44:46.855Z,100001.41
2022-10-17T06:47:15.378Z,100007.53
2022-10-17T06:49:44.411Z,100013.88
2022-10-17T06:52:11.039Z,100008.03
2022-10-17T06:54:38.025Z,100010.19
2022-10-17T06:57:04.661Z,100007.31
2022-10-17T06:59:32.812Z,100008.03
2022-10-17T07:02:02.760Z,100010.22
2022-10-17T07:04:29.663Z,100020.69
2022-10-17T07:06:56.433Z,100020.88
2022-10-17T07:09:23.236Z,100017.94
2022-10-17T07:11:50.101Z,100026.50
2022-10-17T07:14:16.798Z,100020.16
2022-10-17T07:16:43.741Z,100023.41
2022-10-17T07:19:11.841Z,100037.47
2022-10-17T07:21:39.356Z,100032.22
2022-10-17T07:24:06.546Z,100028.75
2022-10-17T07:26:33.482Z,100031.28
2022-10-17T07:29:00.627Z,100033.09
2022-10-17T07:31:27.337Z,100027.72
2022-10-17T07:33:53.998Z,100027.16
2022-10-17T07:36:23.688Z,100033.63
2022-10-17T07:38:50.274Z,100036.88
2022-10-17T07:41:19.478Z,100038.31
2022-10-17T07:43:48.913Z,100045.41
2022-10-17T07:46:15.832Z,100043.81
2022-10-17T07:48:42.618Z,100052.69
2022-10-17T07:51:09.736Z,100040.19
2022-10-17T07:53:39.800Z,100037.22
2022-10-17T07:56:09.549Z,100035.69
2022-10-17T07:58:37.453Z,100035.06
2022-10-17T08:01:07.443Z,100038.09
2022-10-17T08:03:36.296Z,100032.53
2022-10-17T08:06:03.583Z,100039.34
2022-10-17T08:08:30.581Z,100055.13
2022-10-17T08:11:02.857Z,100032.50
2022-10-17T08:13:29.413Z,100054.53
2022-10-17T08:16:00.214Z,100044.13
2022-10-17T08:18:26.765Z,100050.56
2022-10-17T08:20:56.756Z,100053.91
2022-10-17T08:23:26.283Z,100059.47
2022-10-17T08:25:53.934Z,100066.75
2022-10-17T08:28:22.197Z,100073.84
2022-10-17T08:30:48.880Z,100082.91
2022-10-17T08:33:15.738Z,100092.81
2022-10-17T08:35:43.119Z,100087.81
2022-10-17T08:38:12.303Z,100084.44
2022-10-17T08:40:40.364Z,100097.59
2022-10-17T08:43:30.338Z,100079.91
2022-10-17T08:46:02.019Z,100077.25
2022-10-17T08:48:32.822Z,100087.03
2022-10-17T08:51:03.156Z,100086.06
2022-10-17T08:53:33.685Z,100095.53
2022-10-17T08:56:07.209Z,100100.59
2022-10-17T08:58:38.756Z,100104.22
2022-10-17T09:01:13.777Z,100086.84
2022-10-17T09:04:01.675Z,100104.91
2022-10-17T09:06:33.101Z,100111.69
2022-10-17T09:09:23.010Z,100105.13
2022-10-17T09:12:02.693Z,100103.22
2022-10-17T09:15:03.332Z,100098.91
2022-10-17T09:17:39.530Z,100106.91
2022-10-17T09:20:11.634Z,100106.63
2022-10-17T09:22:44.773Z,100112.13
2022-10-17T09:25:14.172Z,100106.41
2022-10-17T09:27:44.541Z,100121.66
2022-10-17T09:30:44.651Z,100125.94
2022-10-17T09:33:23.341Z,100138.94
2022-10-17T09:36:02.550Z,100130.50
2022-10-17T09:38:39.703Z,100127.28
2022-10-17T09:41:39.377Z,100135.78
2022-10-17T09:44:13.813Z,100134.13
2022-10-17T09:46:51.886Z,100133.63
2022-10-17T09:49:26.096Z,100141.28
2022-10-17T09:51:54.014Z,100141.13
2022-10-17T09:54:25.004Z,100147.31
2022-10-17T09:57:02.265Z,100145.75
2022-10-17T09:59:32.321Z,100161.19
2022-10-17T10:02:14.854Z,100161.38
2022-10-17T10:05:03.659Z,100172.25
2022-10-17T10:07:33.197Z,100174.16
2022-10-17T10:10:00.703Z,100173.50
2022-10-17T10:12:29.217Z,100159.78
2022-10-17T10:14:57.132Z,100175.91
2022-10-17T10:17:36.154Z,100183.72
2022-10-17T10:20:24.789Z,100170.03
2022-10-17T10:23:07.072Z,100182.38
2022-10-17T10:25:35.489Z,100176.31
2022-10-17T10:28:11.283Z,100179.38
2022-10-17T10:30:39.940Z,100175.09
2022-10-17T10:33:12.251Z,100180.25
2022-10-17T10:35:39.405Z,100188.06
2022-10-17T10:38:11.017Z,100190.66
2022-10-17T10:40:45.949Z,100194.78
2022-10-17T10:43:23.112Z,100204.38
2022-10-17T10:45:51.815Z,100191.63
2022-10-17T10:48:26.011Z,100206.22
2022-10-17T10:50:57.946Z,100226.56
2022-10-17T10:53:38.879Z,100232.00
2022-10-17T10:56:12.741Z,100231.81
2022-10-17T10:58:51.727Z,100230.09
2022-10-17T11:01:26.936Z,100230.56
2022-10-17T11:04:06.132Z,100237.50
2022-10-17T11:06:38.137Z,100247.28
2022-10-17T11:09:19.821Z,100242.88
2022-10-17T11:11:53.699Z,100236.69
2022-10-17T11:14:28.511Z,100237.78
2022-10-17T11:17:03.279Z,100230.38
2022-10-17T11:19:37.143Z,100227.66
2022-10-17T11:22:14.628Z,100214.47
2022-10-17T11:24:49.320Z,100213.59
2022-10-17T11:27:17.365Z,100201.41
2022-10-17T11:29:47.916Z,100200.91
2022-10-17T11:32:22.023Z,100212.66
2022-10-17T11:34:52.988Z,100221.19
2022-10-17T11:37:23.564Z,100221.47
2022-10-17T11:39:55.045Z,100240.00
2022-10-17T11:42:26.292Z,100240.53
2022-10-17T11:45:00.438Z,100248.88
2022-10-17T11:47:36.295Z,100238.25
2022-10-17T11:53:09.322Z,100242.78
2022-10-17T11:55:37.055Z,100238.78
2022-10-17T11:58:22.747Z,100246.25
2022-10-17T12:00:57.044Z,100247.81
2022-10-17T12:03:45.508Z,100250.78
2022-10-17T12:06:22.923Z,100247.81
2022-10-17T12:08:58.622Z,100248.47
2022-10-17T12:11:36.234Z,100257.88
2022-10-17T12:14:05.880Z,100256.84
2022-10-17T12:16:45.092Z,100264.16
2022-10-17T12:19:23.800Z,100276.13
2022-10-17T12:21:57.505Z,100272.50
2022-10-17T12:24:34.844Z,100262.25
2022-10-17T12:27:36.977Z,100253.88
2022-10-17T12:30:14.303Z,100253.91
2022-10-17T12:33:07.491Z,100237.56
2022-10-17T12:35:36.548Z,100260.41
2022-10-17T12:38:24.655Z,100260.81
2022-10-17T12:41:02.221Z,100258.41
2022-10-17T12:43:56.778Z,100276.81
2022-10-17T12:46:58.002Z,100270.06
2022-10-17T12:49:43.670Z,100283.78
2022-10-17T12:55:20.749Z,100283.97
2022-10-17T12:57:51.701Z,100274.22
2022-10-17T13:00:23.821Z,100283.97
2022-10-17T13:02:54.480Z,100287.06
2022-10-17T13:05:27.691Z,100293.50
2022-10-17T13:07:57.876Z,100299.72
2022-10-17T13:10:29.949Z,100308.38
2022-10-17T13:13:04.867Z,100298.28
2022-10-17T13:15:32.529Z,100303.22
2022-10-17T13:18:01.304Z,100305.47
2022-10-17T13:20:31.718Z,100302.34
2022-10-17T13:22:58.873Z,100317.81
2022-10-17T13:25:27.949Z,100316.06
2022-10-17T13:28:09.440Z,100319.56
2022-10-17T13:30:36.699Z,100309.47
2022-10-17T13:33:19.082Z,100318.81
2022-10-17T13:35:59.850Z,100324.34
2022-10-17T13:38:30.333Z,100335.31
2022-10-17T13:41:16.870Z,100336.16
2022-10-17T13:43:50.532Z,100343.75
2022-10-17T13:46:37.346Z,100345.84
2022-10-17T13:49:11.620Z,100342.31
2022-10-17T13:51:43.466Z,100347.56
2022-10-17T13:54:18.545Z,100351.34
2022-10-17T13:56:46.816Z,100352.06
2022-10-17T13:59:22.908Z,100348.09
2022-10-17T14:01:49.964Z,100344.78
2022-10-17T14:04:20.253Z,100348.75
2022-10-17T14:06:51.204Z,100347.38
2022-10-17T14:09:25.208Z,100337.91
2022-10-17T14:12:02.238Z,100331.31
2022-10-17T14:14:32.162Z,100348.91
2022-10-17T14:17:14.529Z,100351.66
2022-10-17T14:19:41.525Z,100351.13
2022-10-17T14:22:25.046Z,100360.19
2022-10-17T14:24:51.928Z,100352.16
2022-10-17T14:27:31.943Z,100352.31
2022-10-17T14:30:00.917Z,100364.13
2022-10-17T14:32:29.412Z,100359.78
2022-10-17T14:35:10.588Z,100361.25
2022-10-17T14:37:47.203Z,100362.16
2022-10-17T14:40:23.844Z,100367.00
2022-10-17T14:42:56.633Z,100372.56
2022-10-17T14:45:27.310Z,100383.47
2022-10-17T14:47:57.767Z,100391.28
2022-10-17T14:50:26.150Z,100393.19
2022-10-17T14:53:00.828Z,100397.16
2022-10-17T14:55:29.406Z,100396.69
2022-10-17T14:57:58.331Z,100407.59
2022-10-17T15:00:25.871Z,100409.75
2022-10-17T15:02:54.957Z,100415.34
2022-10-17T15:05:22.350Z,100416.94
2022-10-17T15:07:49.427Z,100414.16
2022-10-17T15:10:25.308Z,100416.06
2022-10-17T15:12:57.467Z,100418.66
2022-10-17T15:15:28.786Z,100414.78
2022-10-17T15:17:55.687Z,100415.97
2022-10-17T15:20:23.945Z,100419.94
2022-10-17T15:22:50.823Z,100430.72
2022-10-17T15:25:18.250Z,100425.56
2022-10-17T15:27:45.679Z,100425.31
2022-10-17T15:30:21.460Z,100422.00
2022-10-17T15:32:50.682Z,100428.06
2022-10-17T15:35:18.219Z,100427.63
2022-10-17T15:37:45.363Z,100428.94
2022-10-17T15:40:16.007Z,100429.66
2022-10-17T15:42:42.556Z,100431.00
2022-10-17T15:45:10.437Z,100438.38
2022-10-17T15:47:37.754Z,100456.19
2022-10-17T15:50:07.040Z,100457.63
2022-10-17T15:52:33.904Z,100467.66
2022-10-17T15:55:04.158Z,100468.97
2022-10-17T15:57:36.178Z,100472.31
2022-10-17T16:00:04.688Z,100485.47
2022-10-17T16:02:32.412Z,100475.13
2022-10-17T16:04:59.368Z,100481.84
2022-10-17T16:07:27.503Z,100477.47
2022-10-17T16:09:54.253Z,100490.91
2022-10-17T16:12:27.714Z,100496.94
2022-10-17T16:14:55.638Z,100503.97
2022-10-17T16:17:23.859Z,100507.91
2022-10-17T16:19:50.896Z,100509.63
2022-10-17T16:22:23.697Z,100511.28
2022-10-17T16:24:51.738Z,100519.16
2022-10-17T16:27:18.355Z,100511.59
2022-10-17T16:29:45.016Z,100523.53
2022-10-17T16:32:12.057Z,100528.22
2022-10-17T16:34:38.553Z,100532.88
2022-10-17T16:37:05.246Z,100538.16
2022-10-17T16:39:32.826Z,100539.63
2022-10-17T16:42:00.780Z,100538.50
2022-10-17T16:44:28.080Z,100539.22
2022-10-17T16:46:55.294Z,100539.63
2022-10-17T16:49:22.153Z,100541.41
2022-10-17T16:51:48.736Z,100525.25
2022-10-17T16:54:15.351Z,100535.16
2022-10-17T16:56:41.886Z,100518.69
2022-10-17T16:59:11.213Z,100517.69
2022-10-17T17:01:39.222Z,100515.22
2022-10-17T17:04:06.044Z,100533.41
2022-10-17T17:06:33.220Z,100540.41
2022-10-17T17:08:59.976Z,100545.06
2022-10-17T17:11:28.603Z,100558.63
2022-10-17T17:13:56.291Z,100565.19
2022-10-17T17:16:26.406Z,100570.28
2022-10-17T17:18:56.215Z,100576.22
2022-10-17T17:21:23.246Z,100579.16
2022-10-17T17:23:49.944Z,100581.34
2022-10-17T17:26:18.596Z,100577.69
2022-10-17T17:28:45.681Z,100577.69
2022-10-17T17:31:14.190Z,100564.75
2022-10-17T17:33:50.760Z,100562.84
2022-10-17T17:36:19.402Z,100569.81
2022-10-17T17:38:49.126Z,100563.44
2022-10-17T17:41:17.352Z,100574.63
2022-10-17T17:43:44.941Z,100577.25
2022-10-17T17:46:14.838Z,100571.16
2022-10-17T17:48:44.049Z,100578.56
2022-10-17T17:51:14.376Z,100591.06
2022-10-17T17:53:42.879Z,100582.34
2022-10-17T17:56:13.164Z,100583.94
2022-10-17T17:58:40.637Z,100584.53
2022-10-17T18:01:12.223Z,100587.59
2022-10-17T18:03:44.625Z,100586.09
2022-10-17T18:06:11.761Z,100590.06
2022-10-17T18:08:39.817Z,100587.00
2022-10-17T18:11:06.425Z,100585.84
2022-10-17T18:13:32.965Z,100597.47
2022-10-17T18:16:02.071Z,100595.28
2022-10-17T18:18:30.128Z,100602.13
2022-10-17T18:21:02.400Z,100607.34
2022-10-17T18:23:28.952Z,100604.31
2022-10-17T18:26:00.514Z,100595.84
2022-10-17T18:28:27.330Z,100598.31
2022-10-17T18:30:54.372Z,100610.25
2022-10-17T18:33:21.242Z,100604.13
2022-10-17T18:35:47.912Z,100603.25
2022-10-17T18:38:16.155Z,100602.81
2022-10-17T18:40:45.032Z,100609.50
2022-10-17T18:43:14.187Z,100621.16
2022-10-17T18:46:23.566Z,100593.44
2022-10-17T18:48:50.676Z,100626.38
2022-10-17T18:51:19.272Z,100625.28
2022-10-17T18:53:49.072Z,100623.25
2022-10-17T18:56:17.178Z,100630.41
2022-10-17T18:58:44.319Z,100633.56
2022-10-17T19:01:14.880Z,100637.34
2022-10-17T19:03:42.876Z,100645.03
2022-10-17T19:06:11.328Z,100638.44
2022-10-17T19:08:39.399Z,100636.25
2022-10-17T19:11:09.363Z,100632.03
2022-10-17T19:13:36.976Z,100643.28
2022-10-17T19:16:05.751Z,100637.91
2022-10-17T19:18:33.748Z,100638.72
2022-10-17T19:21:02.147Z,100640.88
2022-10-17T19:23:29.152Z,100644.97
2022-10-17T19:25:58.369Z,100640.56
2022-10-17T19:28:28.398Z,100644.69
2022-10-17T19:30:55.527Z,100643.63
2022-10-17T19:33:22.306Z,100644.97
2022-10-17T19:35:56.127Z,100650.88
2022-10-17T19:38:25.571Z,100651.91
2022-10-17T19:40:52.959Z,100652.47
2022-10-17T19:43:20.757Z,100652.59
2022-10-17T19:45:55.949Z,100661.44
2022-10-17T19:48:25.007Z,100654.34
2022-10-17T19:50:52.814Z,100660.53
2022-10-17T19:53:19.719Z,100666.34
2022-10-17T19:55:46.276Z,100658.06
2022-10-17T19:58:12.969Z,100656.72
2022-10-17T20:00:46.335Z,100653.63
2022-10-17T20:03:14.583Z,100660.53
2022-10-17T20:05:41.134Z,100661.97
2022-10-17T20:08:07.889Z,100639.56
2022-10-17T20:10:34.596Z,100656.63
2022-10-17T20:13:04.614Z,100652.38
2022-10-17T20:15:31.182Z,100651.78
2022-10-17T20:17:58.401Z,100653.53
2022-10-17T20:20:26.975Z,100645.78
2022-10-17T20:22:55.511Z,100656.50
2022-10-17T20:25:22.564Z,100658.69
2022-10-17T20:27:49.170Z,100654.41
2022-10-17T20:30:16.044Z,100658.34
2022-10-17T20:32:43.516Z,100656.19
2022-10-17T20:35:10.230Z,100663.34
2022-10-17T20:37:41.681Z,100664.16
2022-10-17T20:40:33.619Z,100672.34
2022-10-17T20:42:58.497Z,100671.16
2022-10-17T20:45:37.604Z,100682.28
2022-10-17T20:48:16.059Z,100682.25
2022-10-17T20:50:43.823Z,100681.31
2022-10-17T20:56:02.802Z,100675.16
2022-10-17T20:58:29.458Z,100678.06
2022-10-17T21:00:56.027Z,100683.31
2022-10-17T21:03:22.557Z,100677.31
2022-10-17T21:05:51.867Z,100684.09
2022-10-17T21:08:19.985Z,100680.47
2022-10-17T21:10:46.510Z,100678.19
2022-10-17T21:13:13.447Z,100679.47
2022-10-17T21:15:40.036Z,100672.47
2022-10-17T21:18:07.102Z,100674.06
2022-10-17T21:20:33.726Z,100664.84
2022-10-17T21:23:00.352Z,100661.06
2022-10-17T21:25:28.716Z,100670.69
2022-10-17T21:27:55.316Z,100670.97
2022-10-17T21:30:21.911Z,100668.53
2022-10-17T21:32:52.537Z,100668.09
2022-10-17T21:35:19.322Z,100669.97
2022-10-17T21:37:46.052Z,100672.75
2022-10-17T21:40:14.176Z,100671.88
2022-10-17T21:42:42.196Z,100669.72
2022-10-17T21:45:15.730Z,100681.66
2022-10-17T21:48:11.209Z,100674.75
2022-10-17T21:50:33.651Z,100684.25
2022-10-17T21:53:00.194Z,100687.41
2022-10-17T21:55:26.964Z,100689.78
2022-10-17T21:57:54.946Z,100696.56
2022-10-17T22:00:21.785Z,100686.94
2022-10-17T22:02:48.407Z,100695.47
2022-10-17T22:05:15.931Z,100694.72
2022-10-17T22:07:42.519Z,100703.84
2022-10-17T22:10:09.654Z,100707.38
2022-10-17T22:12:36.529Z,100715.97
2022-10-17T22:15:05.628Z,100703.81
2022-10-17T22:17:32.823Z,100718.25
2022-10-17T22:20:00.088Z,100717.72
2022-10-17T22:22:26.625Z,100717.09
2022-10-17T22:24:53.392Z,100715.59
2022-10-17T22:27:20.467Z,100715.00
2022-10-17T22:29:47.168Z,100704.34
2022-10-17T22:32:19.983Z,100711.75
2022-10-17T22:34:49.102Z,100720.16
2022-10-17T22:37:18.294Z,100720.88
2022-10-17T22:39:44.798Z,100722.25
2022-10-17T22:42:12.738Z,100726.91
2022-10-17T22:44:40.607Z,100732.13
2022-10-17T22:47:07.409Z,100731.97
2022-10-17T22:49:35.431Z,100733.22
2022-10-17T22:52:03.536Z,100731.50
2022-10-17T22:54:30.086Z,100726.13
2022-10-17T22:56:56.691Z,100731.53
2022-10-17T22:59:23.628Z,100718.88
2022-10-17T23:01:50.341Z,100723.84
2022-10-17T23:04:17.209Z,100729.09
2022-10-17T23:06:45.624Z,100723.97
2022-10-17T23:09:12.628Z,100726.09
2022-10-17T23:11:39.266Z,100727.56
2022-10-17T23:14:06.071Z,100732.34
2022-10-17T23:16:32.612Z,100732.34
2022-10-17T23:18:59.191Z,100727.97
2022-10-17T23:21:26.128Z,100731.06
2022-10-17T23:23:54.317Z,100725.28
2022-10-17T23:26:20.822Z,100733.06
2022-10-17T23:28:48.178Z,100735.47
2022-10-17T23:31:16.250Z,100727.44
2022-10-17T23:33:43.996Z,100721.34
2022-10-17T23:36:12.031Z,100721.47
2022-10-17T23:38:39.335Z,100715.09
2022-10-17T23:41:09.563Z,100727.22
2022-10-17T23:43:36.567Z,100726.00
2022-10-17T23:46:04.762Z,100726.63
2022-10-17T23:48:31.673Z,100734.63
2022-10-17T23:50:58.789Z,100722.84
2022-10-17T23:53:26.160Z,100717.59
2022-10-17T23:55:52.941Z,100719.34
2022-10-17T23:58:22.967Z,100723.31
